Jim Falls, WI (54748)

8:48 PM CDT on August 27, 2015 (GMT -0500)
Jim Falls 3W | | Change Station
CLOSE
Current Station
Personal Weather Station
Location: Jim Falls, WI
Elevation: 1061 ft
Nearby Weather Stations

Elev 1061 ft 45.08 °N, 91.33 °W | Updated 11 seconds ago

Mostly Cloudy
Mostly Cloudy
66.2 °F
Feels Like 66.2 °F
N
0.0
Wind Variable Wind from SSW
Gusts 1.0 mph

Today
High -- | Low -- °F
--% Chance of Precip.
Yesterday
High -- | Low -- °F
Precip. -- in
6:20 AM 7:51 PM
Waxing Gibbous, 96% visible
Pressure 30.04 in
Visibility 10.0 miles
Clouds Few 6500 ft
Dew Point 61 °F
Humidity 83%
Rainfall 0.00 in
Snow Depth Not available.
UV 0 out of 12
Pollen 9.90 out of 12
Air Quality Not available.
Flu Activity Not available.
METAR KEAU 280056Z 15006KT 10SM FEW065 20/14 A3004 RMK AO2 SLP171 T02000144
Pressure 30.04 in
Visibility 10.0 miles
Clouds Few 6500 ft
Dew Point 61 °F
Humidity 83%
Rainfall 0.00 in
Snow Depth Not available.
UV 0 out of 12
Pollen 9.90 out of 12
Air Quality Not available.
Flu Activity Not available.
METAR KEAU 280056Z 15006KT 10SM FEW065 20/14 A3004 RMK AO2 SLP171 T02000144

10-Day Weather Forecast

×

Almanac

Astronomy

Aug. 27, 2015 Rise Set
Actual Time
Civil Twilight
Nautical Twilight
Astronomical Twilight
Moon
Length of Visible Light
Length of Day
Tomorrow will be .
, % of the Moon is Illuminated

Today's Extremes

State Highs State Lows

Community

WunderPhotos

Upload Photos

1,850,296 photos uploaded!

WunderBlogs® & News

Nearby

Air Quality

  Air Quality AQ Index Pollutant
Not available.

Snow Depth

Station Depth Elevation

Earthquake Activity

City Distance Mag. Time & Date
Minimum magnitude displayed is 2.5.

Coastal Water Temperatures

Place Temperature

Stations

Nearby Weather Stations

Station Location Temp. Windchill Dew Point Humidity Wind Precip. Elev Updated Type